createdAt,value
2022-11-27T00:00:34.044Z,6.70
2022-11-27T00:03:01.268Z,6.70
2022-11-27T00:05:28.401Z,6.70
2022-11-27T00:07:55.403Z,6.60
2022-11-27T00:10:22.441Z,6.60
2022-11-27T00:12:49.407Z,6.60
2022-11-27T00:15:17.468Z,6.70
2022-11-27T00:17:44.626Z,6.70
2022-11-27T00:20:13.108Z,6.60
2022-11-27T00:22:40.094Z,6.70
2022-11-27T00:25:07.628Z,6.70
2022-11-27T00:27:34.640Z,6.70
2022-11-27T00:30:01.712Z,6.70
2022-11-27T00:32:28.625Z,6.70
2022-11-27T00:34:55.581Z,6.70
2022-11-27T00:37:22.572Z,6.70
2022-11-27T00:39:49.539Z,6.70
2022-11-27T00:42:16.546Z,6.80
2022-11-27T00:44:43.560Z,6.80
2022-11-27T00:47:10.580Z,6.80
2022-11-27T00:49:37.587Z,6.80
2022-11-27T00:52:04.999Z,6.80
2022-11-27T00:54:31.970Z,6.80
2022-11-27T00:56:58.924Z,6.80
2022-11-27T00:59:26.666Z,6.80
2022-11-27T01:01:53.602Z,6.80
2022-11-27T01:04:20.639Z,6.80
2022-11-27T01:06:47.681Z,6.80
2022-11-27T01:09:15.537Z,6.80
2022-11-27T01:11:43.224Z,6.80
2022-11-27T01:14:18.736Z,6.80
2022-11-27T01:16:45.780Z,6.80
2022-11-27T01:19:13.932Z,6.70
2022-11-27T01:21:41.336Z,6.70
2022-11-27T01:24:08.949Z,6.70
2022-11-27T01:26:35.864Z,6.70
2022-11-27T01:29:02.952Z,6.70
2022-11-27T01:31:32.461Z,6.70
2022-11-27T01:34:08.041Z,6.70
2022-11-27T01:36:35.839Z,6.70
2022-11-27T01:39:02.942Z,6.70
2022-11-27T01:41:37.462Z,6.70
2022-11-27T01:44:24.355Z,6.70
2022-11-27T01:46:54.107Z,6.70
2022-11-27T01:49:44.931Z,6.70
2022-11-27T01:52:17.204Z,6.70
2022-11-27T01:54:58.500Z,6.70
2022-11-27T01:57:30.266Z,6.70
2022-11-27T02:00:00.086Z,6.70
2022-11-27T02:02:27.837Z,6.70
2022-11-27T02:04:55.687Z,6.60
2022-11-27T02:07:22.979Z,6.60
2022-11-27T02:09:50.219Z,6.60
2022-11-27T02:12:35.551Z,6.60
2022-11-27T02:15:32.665Z,6.60
2022-11-27T02:18:28.314Z,6.60
2022-11-27T02:20:58.119Z,6.60
2022-11-27T02:23:59.987Z,6.60
2022-11-27T02:27:03.652Z,6.60
2022-11-27T02:29:34.240Z,6.60
2022-11-27T02:32:42.846Z,6.50
2022-11-27T02:35:20.894Z,6.50
2022-11-27T02:37:52.139Z,6.50
2022-11-27T02:40:44.391Z,6.50
2022-11-27T02:43:43.074Z,6.50
2022-11-27T02:46:13.197Z,6.50
2022-11-27T02:48:46.225Z,6.50
2022-11-27T02:51:15.160Z,6.50
2022-11-27T02:53:49.946Z,6.50
2022-11-27T02:56:20.289Z,6.50
2022-11-27T02:58:49.198Z,6.50
2022-11-27T03:01:20.526Z,6.50
2022-11-27T03:03:52.660Z,6.40
2022-11-27T03:06:30.101Z,6.40
2022-11-27T03:09:06.859Z,6.40
2022-11-27T03:11:34.509Z,6.40
2022-11-27T03:14:06.510Z,6.30
2022-11-27T03:16:42.393Z,6.30
2022-11-27T03:19:37.834Z,6.30
2022-11-27T03:22:05.458Z,6.30
2022-11-27T03:24:35.280Z,6.20
2022-11-27T03:27:03.786Z,6.20
2022-11-27T03:29:41.323Z,6.10
2022-11-27T03:32:08.838Z,6.10
2022-11-27T03:34:36.831Z,6.10
2022-11-27T03:37:04.830Z,6.10
2022-11-27T03:39:33.518Z,6.00
2022-11-27T03:42:05.467Z,6.00
2022-11-27T03:45:05.798Z,6.00
2022-11-27T03:47:55.880Z,6.00
2022-11-27T03:50:22.987Z,6.00
2022-11-27T03:53:08.736Z,6.00
2022-11-27T03:55:47.688Z,6.00
2022-11-27T03:58:32.924Z,6.00
2022-11-27T04:01:01.737Z,6.00
2022-11-27T04:03:30.208Z,6.00
2022-11-27T04:05:57.738Z,6.00
2022-11-27T04:08:24.968Z,6.00
2022-11-27T04:10:51.969Z,6.00
2022-11-27T04:13:18.958Z,6.00
2022-11-27T04:15:46.364Z,6.00
2022-11-27T04:18:13.446Z,6.00
2022-11-27T04:20:40.486Z,6.00
2022-11-27T04:23:07.477Z,6.00
2022-11-27T04:25:34.478Z,5.90
2022-11-27T04:28:01.541Z,5.90
2022-11-27T04:30:28.500Z,5.90
2022-11-27T04:32:55.444Z,5.80
2022-11-27T04:35:22.426Z,5.80
2022-11-27T04:37:49.358Z,5.80
2022-11-27T04:40:16.375Z,5.80
2022-11-27T04:42:43.356Z,5.80
2022-11-27T04:45:10.879Z,5.80
2022-11-27T04:47:37.853Z,5.80
2022-11-27T04:50:05.385Z,5.80
2022-11-27T04:52:32.431Z,5.80
2022-11-27T04:55:00.444Z,5.80
2022-11-27T04:57:27.885Z,5.80
2022-11-27T04:59:54.966Z,5.80
2022-11-27T05:02:22.275Z,5.80
2022-11-27T05:04:49.371Z,5.80
2022-11-27T05:07:16.428Z,5.70
2022-11-27T05:09:43.455Z,5.70
2022-11-27T05:12:10.429Z,5.70
2022-11-27T05:14:37.507Z,5.70
2022-11-27T05:17:04.828Z,5.70
2022-11-27T05:19:32.379Z,5.70
2022-11-27T05:21:59.670Z,5.70
2022-11-27T05:24:28.492Z,5.60
2022-11-27T05:26:56.770Z,5.60
2022-11-27T05:29:26.271Z,5.60
2022-11-27T05:31:53.483Z,5.60
2022-11-27T05:34:20.939Z,5.60
2022-11-27T05:36:47.974Z,5.60
2022-11-27T05:39:15.551Z,5.50
2022-11-27T05:41:43.652Z,5.50
2022-11-27T05:44:15.217Z,5.50
2022-11-27T05:46:45.838Z,5.50
2022-11-27T05:49:14.271Z,5.40
2022-11-27T05:51:44.186Z,5.40
2022-11-27T05:54:16.335Z,5.40
2022-11-27T05:56:43.265Z,5.40
2022-11-27T05:59:11.013Z,5.40
2022-11-27T06:01:38.154Z,5.40
2022-11-27T06:04:05.290Z,5.30
2022-11-27T06:06:32.850Z,5.30
2022-11-27T06:09:00.529Z,5.30
2022-11-27T06:11:27.675Z,5.20
2022-11-27T06:13:54.655Z,5.20
2022-11-27T06:16:23.717Z,5.20
2022-11-27T06:18:52.738Z,5.10
2022-11-27T06:21:20.953Z,5.10
2022-11-27T06:23:47.973Z,5.10
2022-11-27T06:26:23.948Z,5.10
2022-11-27T06:28:51.620Z,5.10
2022-11-27T06:31:21.864Z,5.10
2022-11-27T06:33:51.045Z,5.00
2022-11-27T06:36:19.291Z,5.10
2022-11-27T06:38:47.065Z,5.10
2022-11-27T06:41:24.221Z,5.10
2022-11-27T06:43:51.553Z,5.10
2022-11-27T06:46:21.259Z,5.10
2022-11-27T06:48:50.015Z,5.10
2022-11-27T06:51:19.987Z,5.20
2022-11-27T06:53:48.239Z,5.20
2022-11-27T06:56:19.501Z,5.20
2022-11-27T06:58:46.565Z,5.20
2022-11-27T07:01:16.479Z,5.20
2022-11-27T07:03:44.744Z,5.30
2022-11-27T07:06:15.549Z,5.30
2022-11-27T07:08:42.631Z,5.30
2022-11-27T07:11:22.578Z,5.30
2022-11-27T07:13:51.312Z,5.30
2022-11-27T07:16:19.217Z,5.40
2022-11-27T07:18:51.295Z,5.40
2022-11-27T07:21:18.701Z,5.40
2022-11-27T07:23:45.939Z,5.40
2022-11-27T07:26:15.591Z,5.50
2022-11-27T07:28:45.916Z,5.50
2022-11-27T07:31:15.575Z,5.50
2022-11-27T07:33:42.584Z,5.50
2022-11-27T07:36:17.514Z,5.60
2022-11-27T07:38:45.733Z,5.60
2022-11-27T07:41:13.994Z,5.70
2022-11-27T07:43:42.484Z,5.70
2022-11-27T07:46:16.412Z,5.80
2022-11-27T07:48:43.639Z,5.80
2022-11-27T07:51:12.953Z,5.80
2022-11-27T07:53:41.853Z,5.80
2022-11-27T07:56:11.517Z,5.90
2022-11-27T07:58:38.616Z,5.90
2022-11-27T08:01:11.268Z,5.90
2022-11-27T08:03:38.644Z,5.90
2022-11-27T08:06:13.271Z,6.00
2022-11-27T08:08:40.190Z,6.10
2022-11-27T08:11:07.134Z,6.10
2022-11-27T08:13:34.124Z,6.10
2022-11-27T08:16:01.186Z,6.20
2022-11-27T08:18:28.301Z,6.30
2022-11-27T08:20:55.261Z,6.30
2022-11-27T08:23:22.279Z,6.30
2022-11-27T08:25:49.314Z,6.30
2022-11-27T08:28:16.260Z,6.30
2022-11-27T08:30:43.270Z,6.30
2022-11-27T08:33:10.935Z,6.20
2022-11-27T08:35:37.973Z,6.20
2022-11-27T08:38:05.106Z,6.10
2022-11-27T08:40:32.144Z,6.10
2022-11-27T08:42:59.421Z,6.00
2022-11-27T08:45:26.445Z,5.90
2022-11-27T08:47:53.637Z,6.00
2022-11-27T08:50:20.639Z,6.10
2022-11-27T08:52:47.605Z,6.10
2022-11-27T08:55:14.604Z,6.10
2022-11-27T08:57:41.619Z,6.20
2022-11-27T09:00:09.335Z,6.20
2022-11-27T09:02:36.381Z,6.30
2022-11-27T09:05:05.933Z,6.40
2022-11-27T09:07:32.983Z,6.40
2022-11-27T09:10:00.046Z,6.40
2022-11-27T09:12:27.688Z,6.40
2022-11-27T09:14:54.706Z,6.40
2022-11-27T09:17:21.704Z,6.50
2022-11-27T09:19:48.670Z,6.50
2022-11-27T09:22:15.689Z,6.50
2022-11-27T09:24:43.038Z,6.60
2022-11-27T09:27:10.917Z,6.60
2022-11-27T09:29:38.061Z,6.60
2022-11-27T09:32:05.185Z,6.60
2022-11-27T09:34:37.150Z,6.60
2022-11-27T09:37:05.305Z,6.60
2022-11-27T09:39:34.113Z,6.70
2022-11-27T09:42:06.302Z,6.70
2022-11-27T09:45:00.778Z,6.80
2022-11-27T09:47:36.094Z,6.90
2022-11-27T09:50:19.153Z,6.90
2022-11-27T09:53:00.225Z,6.90
2022-11-27T09:55:36.811Z,6.90
2022-11-27T09:58:17.991Z,6.80
2022-11-27T10:00:46.856Z,6.80
2022-11-27T10:03:15.723Z,6.90
2022-11-27T10:06:11.089Z,6.90
2022-11-27T10:09:14.500Z,7.00
2022-11-27T10:11:50.207Z,7.00
2022-11-27T10:15:00.095Z,7.00
2022-11-27T10:18:03.888Z,7.00
2022-11-27T10:20:49.085Z,7.00
2022-11-27T10:23:32.584Z,7.10
2022-11-27T10:26:04.554Z,7.10
2022-11-27T10:28:37.943Z,7.10
2022-11-27T10:31:17.836Z,7.10
2022-11-27T10:33:54.964Z,7.10
2022-11-27T10:36:39.136Z,7.20
2022-11-27T10:39:16.330Z,7.30
2022-11-27T10:42:10.707Z,7.20
2022-11-27T10:44:56.905Z,7.30
2022-11-27T10:47:28.543Z,7.20
2022-11-27T10:49:57.997Z,7.20
2022-11-27T10:52:25.354Z,7.20
2022-11-27T10:55:03.573Z,7.30
2022-11-27T10:57:38.771Z,7.30
2022-11-27T11:00:23.341Z,7.40
2022-11-27T11:03:04.733Z,7.50
2022-11-27T11:05:45.482Z,7.50
2022-11-27T11:08:21.159Z,7.40
2022-11-27T11:11:02.600Z,7.50
2022-11-27T11:13:30.541Z,7.50
2022-11-27T11:16:14.509Z,7.70
2022-11-27T11:18:51.177Z,7.80
2022-11-27T11:21:40.703Z,8.00
2022-11-27T11:24:15.990Z,8.00
2022-11-27T11:26:52.560Z,8.10
2022-11-27T11:29:34.437Z,8.10
2022-11-27T11:32:22.122Z,8.10
2022-11-27T11:35:03.075Z,8.10
2022-11-27T11:37:42.234Z,8.20
2022-11-27T11:40:33.837Z,8.20
2022-11-27T11:43:10.350Z,8.30
2022-11-27T11:45:47.080Z,8.30
2022-11-27T11:48:24.389Z,8.40
2022-11-27T11:50:56.301Z,8.40
2022-11-27T11:53:35.622Z,8.30
2022-11-27T11:56:08.465Z,8.30
2022-11-27T11:58:49.283Z,8.40
2022-11-27T12:01:27.523Z,8.50
2022-11-27T12:04:13.042Z,8.60
2022-11-27T12:06:58.195Z,8.70
2022-11-27T12:09:31.092Z,8.70
2022-11-27T12:12:01.612Z,8.60
2022-11-27T12:15:07.425Z,8.50
2022-11-27T12:17:48.597Z,8.40
2022-11-27T12:20:26.575Z,8.40
2022-11-27T12:23:28.653Z,8.50
2022-11-27T12:26:01.952Z,8.40
2022-11-27T12:28:39.264Z,8.20
2022-11-27T12:31:28.472Z,8.20
2022-11-27T12:34:01.621Z,8.20
2022-11-27T12:36:54.920Z,8.30
2022-11-27T12:39:32.802Z,8.30
2022-11-27T12:42:07.710Z,8.20
2022-11-27T12:44:53.474Z,8.20
2022-11-27T12:47:44.695Z,8.20
2022-11-27T12:50:34.407Z,8.10
2022-11-27T12:53:18.803Z,8.00
2022-11-27T12:56:29.335Z,7.90
2022-11-27T12:59:19.504Z,7.90
2022-11-27T13:02:00.291Z,7.90
2022-11-27T13:04:52.848Z,8.00
2022-11-27T13:07:22.893Z,8.00
2022-11-27T13:09:59.090Z,7.90
2022-11-27T13:12:39.435Z,7.90
2022-11-27T13:15:26.186Z,7.90
2022-11-27T13:18:03.208Z,7.90
2022-11-27T13:20:39.392Z,7.80
2022-11-27T13:23:06.663Z,7.80
2022-11-27T13:25:41.217Z,7.80
2022-11-27T13:28:09.288Z,7.80
2022-11-27T13:30:38.414Z,7.80
2022-11-27T13:33:07.564Z,7.80
2022-11-27T13:35:34.690Z,7.80
2022-11-27T13:38:13.800Z,7.80
2022-11-27T13:40:47.881Z,7.80
2022-11-27T13:43:19.862Z,7.80
2022-11-27T13:45:47.652Z,7.80
2022-11-27T13:48:29.702Z,7.80
2022-11-27T13:50:58.861Z,7.80
2022-11-27T13:53:41.647Z,7.70
2022-11-27T13:56:10.456Z,7.70
2022-11-27T13:58:42.907Z,7.70
2022-11-27T14:01:21.594Z,7.70
2022-11-27T14:03:50.229Z,7.70
2022-11-27T14:06:23.135Z,7.70
2022-11-27T14:09:01.843Z,7.60
2022-11-27T14:11:40.742Z,7.60
2022-11-27T14:14:23.978Z,7.60
2022-11-27T14:17:01.977Z,7.60
2022-11-27T14:19:56.029Z,7.50
2022-11-27T14:23:09.995Z,7.50
2022-11-27T14:25:36.366Z,7.50
2022-11-27T14:28:26.496Z,7.40
2022-11-27T14:30:57.661Z,7.40
2022-11-27T14:33:31.225Z,7.30
2022-11-27T14:36:05.015Z,7.20
2022-11-27T14:38:33.969Z,7.10
2022-11-27T14:41:23.314Z,7.10
2022-11-27T14:44:03.566Z,7.00
2022-11-27T14:46:36.353Z,6.90
2022-11-27T14:49:04.542Z,6.80
2022-11-27T14:51:35.533Z,6.80
2022-11-27T14:54:12.375Z,6.70
2022-11-27T14:56:46.146Z,6.60
2022-11-27T14:59:19.085Z,6.50
2022-11-27T15:01:58.856Z,6.50
2022-11-27T15:04:33.078Z,6.40
2022-11-27T15:07:00.754Z,6.30
2022-11-27T15:09:43.203Z,6.20
2022-11-27T15:12:29.984Z,6.10
2022-11-27T15:15:06.719Z,6.00
2022-11-27T15:17:37.748Z,5.90
2022-11-27T15:20:16.017Z,5.80
2022-11-27T15:22:57.925Z,5.80
2022-11-27T15:26:12.579Z,5.70
2022-11-27T15:28:53.751Z,5.60
2022-11-27T15:31:37.975Z,5.60
2022-11-27T15:34:14.481Z,5.50
2022-11-27T15:36:44.319Z,5.50
2022-11-27T15:39:52.156Z,5.50
2022-11-27T15:42:20.526Z,5.40
2022-11-27T15:44:49.716Z,5.40
2022-11-27T15:47:34.610Z,5.30
2022-11-27T15:50:02.210Z,5.20
2022-11-27T15:52:29.326Z,5.20
2022-11-27T15:54:57.146Z,5.20
2022-11-27T15:57:25.600Z,5.10
2022-11-27T15:59:53.199Z,5.10
2022-11-27T16:02:20.645Z,5.00
2022-11-27T16:04:47.873Z,5.00
2022-11-27T16:07:17.311Z,5.00
2022-11-27T16:09:44.552Z,4.90
2022-11-27T16:12:12.067Z,4.80
2022-11-27T16:14:39.434Z,4.70
2022-11-27T16:17:06.720Z,4.70
2022-11-27T16:19:34.107Z,4.70
2022-11-27T16:22:01.315Z,4.70
2022-11-27T16:24:28.749Z,4.60
2022-11-27T16:26:58.824Z,4.60
2022-11-27T16:29:26.519Z,4.60
2022-11-27T16:31:54.165Z,4.50
2022-11-27T16:34:22.367Z,4.50
2022-11-27T16:36:50.086Z,4.40
2022-11-27T16:39:18.238Z,4.40
2022-11-27T16:41:45.891Z,4.30
2022-11-27T16:44:15.378Z,4.30
2022-11-27T16:46:44.795Z,4.30
2022-11-27T16:49:13.448Z,4.20
2022-11-27T16:51:42.009Z,4.20
2022-11-27T16:54:13.359Z,4.10
2022-11-27T16:56:41.072Z,4.10
2022-11-27T16:59:15.959Z,4.00
2022-11-27T17:01:45.372Z,4.00
2022-11-27T17:04:20.090Z,4.00
2022-11-27T17:06:49.465Z,3.90
2022-11-27T17:09:17.702Z,3.90
2022-11-27T17:11:48.922Z,3.80
2022-11-27T17:14:17.285Z,3.80
2022-11-27T17:16:45.425Z,3.80
2022-11-27T17:19:14.311Z,3.80
2022-11-27T17:21:42.642Z,3.70
2022-11-27T17:24:16.503Z,3.70
2022-11-27T17:26:44.987Z,3.70
2022-11-27T17:29:14.534Z,3.70
2022-11-27T17:31:43.060Z,3.70
2022-11-27T17:34:14.842Z,3.70
2022-11-27T17:36:43.665Z,3.70
2022-11-27T17:39:13.575Z,3.70
2022-11-27T17:41:45.378Z,3.60
2022-11-27T17:44:13.315Z,3.60
2022-11-27T17:46:41.197Z,3.60
2022-11-27T17:49:11.511Z,3.60
2022-11-27T17:51:39.067Z,3.60
2022-11-27T17:54:06.570Z,3.60
2022-11-27T17:56:36.383Z,3.60
2022-11-27T17:59:04.755Z,3.50
2022-11-27T18:01:34.872Z,3.50
2022-11-27T18:04:04.795Z,3.50
2022-11-27T18:06:33.523Z,3.50
2022-11-27T18:09:01.394Z,3.50
2022-11-27T18:11:33.375Z,3.50
2022-11-27T18:14:02.621Z,3.50
2022-11-27T18:16:39.242Z,3.50
2022-11-27T18:19:11.133Z,3.50
2022-11-27T18:21:41.259Z,3.50
2022-11-27T18:24:25.343Z,3.50
2022-11-27T18:27:11.529Z,3.60
2022-11-27T18:29:42.680Z,3.50
2022-11-27T18:32:12.970Z,3.60
2022-11-27T18:34:42.066Z,3.60
2022-11-27T18:37:11.009Z,3.60
2022-11-27T18:39:40.780Z,3.60
2022-11-27T18:42:09.052Z,3.60
2022-11-27T18:44:44.402Z,3.60
2022-11-27T18:47:15.910Z,3.60
2022-11-27T18:49:45.135Z,3.70
2022-11-27T18:52:12.997Z,3.70
2022-11-27T18:54:40.876Z,3.70
2022-11-27T18:57:08.803Z,3.70
2022-11-27T18:59:36.868Z,3.70
2022-11-27T19:02:05.898Z,3.70
2022-11-27T19:04:38.151Z,3.70
2022-11-27T19:07:06.540Z,3.70
2022-11-27T19:09:36.125Z,3.70
2022-11-27T19:12:04.413Z,3.70
2022-11-27T19:14:32.052Z,3.70
2022-11-27T19:17:00.259Z,3.70
2022-11-27T19:22:20.700Z,3.60
2022-11-27T19:24:50.768Z,3.50
2022-11-27T19:27:19.260Z,3.60
2022-11-27T19:29:47.350Z,3.60
2022-11-27T19:32:15.317Z,3.70
2022-11-27T19:34:46.247Z,3.70
2022-11-27T19:37:21.361Z,3.80
2022-11-27T19:40:01.708Z,3.90
2022-11-27T19:42:29.613Z,3.90
2022-11-27T19:44:57.152Z,4.00
2022-11-27T19:47:25.168Z,4.10
2022-11-27T19:49:53.458Z,4.20
2022-11-27T19:52:21.360Z,4.20
2022-11-27T19:54:52.297Z,4.30
2022-11-27T19:57:20.489Z,4.30
2022-11-27T19:59:49.918Z,4.40
2022-11-27T20:02:19.870Z,4.40
2022-11-27T20:04:47.876Z,4.40
2022-11-27T20:07:16.071Z,4.50
2022-11-27T20:09:43.868Z,4.50
2022-11-27T20:12:12.505Z,4.50
2022-11-27T20:14:40.507Z,4.50
2022-11-27T20:17:08.726Z,4.60
2022-11-27T20:19:36.987Z,4.60
2022-11-27T20:22:04.898Z,4.60
2022-11-27T20:24:34.444Z,4.60
2022-11-27T20:27:04.135Z,4.50
2022-11-27T20:29:32.890Z,4.50
2022-11-27T20:32:02.289Z,4.50
2022-11-27T20:34:29.956Z,4.50
2022-11-27T20:36:58.060Z,4.50
2022-11-27T20:39:25.867Z,4.50
2022-11-27T20:41:54.072Z,4.50
2022-11-27T20:44:25.817Z,4.50
2022-11-27T20:46:53.787Z,4.50
2022-11-27T20:49:21.722Z,4.50
2022-11-27T20:51:51.187Z,4.50
2022-11-27T20:54:19.450Z,4.50
2022-11-27T20:56:48.228Z,4.50
2022-11-27T20:59:16.146Z,4.50
2022-11-27T21:01:45.204Z,4.50
2022-11-27T21:04:24.337Z,4.50
2022-11-27T21:06:54.009Z,4.60
2022-11-27T21:09:22.478Z,4.60
2022-11-27T21:11:51.086Z,4.60
2022-11-27T21:14:18.706Z,4.60
2022-11-27T21:16:48.988Z,4.60
2022-11-27T21:19:27.445Z,4.60
2022-11-27T21:21:55.619Z,4.60
2022-11-27T21:24:26.306Z,4.60
2022-11-27T21:26:54.012Z,4.60
2022-11-27T21:29:25.860Z,4.60
2022-11-27T21:31:54.113Z,4.60
2022-11-27T21:34:23.461Z,4.60
2022-11-27T21:36:50.777Z,4.60
2022-11-27T21:39:20.718Z,4.70
2022-11-27T21:41:49.835Z,4.70
2022-11-27T21:44:18.117Z,4.70
2022-11-27T21:46:46.338Z,4.70
2022-11-27T21:49:15.840Z,4.80
2022-11-27T21:51:43.706Z,4.80
2022-11-27T21:54:13.126Z,4.80
2022-11-27T21:56:41.017Z,4.80
2022-11-27T21:59:11.066Z,4.80
2022-11-27T22:01:38.803Z,4.80
2022-11-27T22:04:06.260Z,4.80
2022-11-27T22:06:38.555Z,4.80
2022-11-27T22:09:10.511Z,4.80
2022-11-27T22:11:40.547Z,4.80
2022-11-27T22:14:08.995Z,4.80
2022-11-27T22:16:44.394Z,4.80
2022-11-27T22:19:12.606Z,4.80
2022-11-27T22:21:39.594Z,4.80
2022-11-27T22:24:06.930Z,4.80
2022-11-27T22:26:33.945Z,4.80
2022-11-27T22:29:00.938Z,4.80
2022-11-27T22:31:31.183Z,4.80
2022-11-27T22:33:58.498Z,4.80
2022-11-27T22:36:31.946Z,4.80
2022-11-27T22:39:02.460Z,4.80
2022-11-27T22:41:31.567Z,4.70
2022-11-27T22:44:02.595Z,4.70
2022-11-27T22:46:33.111Z,4.70
2022-11-27T22:49:02.734Z,4.70
2022-11-27T22:51:32.026Z,4.80
2022-11-27T22:53:59.381Z,4.80
2022-11-27T22:56:26.380Z,4.80
2022-11-27T22:59:11.305Z,4.80
2022-11-27T23:01:41.026Z,4.80
2022-11-27T23:04:08.192Z,4.80
2022-11-27T23:06:35.226Z,4.80
2022-11-27T23:09:02.266Z,4.80
2022-11-27T23:11:29.277Z,4.90
2022-11-27T23:13:58.201Z,4.90
2022-11-27T23:16:25.602Z,4.90
2022-11-27T23:18:52.746Z,4.80
2022-11-27T23:21:22.289Z,4.90
2022-11-27T23:23:49.559Z,4.90
2022-11-27T23:26:19.778Z,4.90
2022-11-27T23:28:47.865Z,5.00
2022-11-27T23:31:34.838Z,5.00
2022-11-27T23:34:05.269Z,5.00
2022-11-27T23:36:33.451Z,5.00
2022-11-27T23:39:02.109Z,5.00
2022-11-27T23:41:29.465Z,5.00
2022-11-27T23:43:57.466Z,5.00
2022-11-27T23:46:27.228Z,5.00
2022-11-27T23:49:00.266Z,5.00
2022-11-27T23:51:30.112Z,5.00
2022-11-27T23:53:57.566Z,4.90
2022-11-27T23:56:26.545Z,4.90
2022-11-27T23:58:55.119Z,4.90
